Time;durP1;ratioP1;P1;durP2;ratioP2;P2;SDS_P1;SDS_P2;PMS_P1;PMS_P2;Temp;Humidity;BMP_temperature;BMP_pressure;BME280_temperature;BME280_humidity;BME280_pressure;Samples;Min_cycle;Max_cycle;Signal;HPM_P1;HPM_P2
2022/04/18 00:02:00;;;;;;;8.60;2.70;;;;;;;4.88;49.51;92689.69;5054242;28;20080;-94
2022/04/18 00:04:59;;;;;;;;;;;;;;;;;;;;;
2022/04/18 00:07:46;;;;;;;;;;;;;;;;;;;;;
2022/04/18 00:10:30;;;;;;;6.05;2.25;;;;;;;5.11;48.14;92694.56;5055990;28;20551;-94
2022/04/18 00:13:30;;;;;;;;;;;;;;;;;;;;;
2022/04/18 00:16:06;;;;;;;10.50;2.20;;;;;;;4.94;48.54;92678.34;5046990;28;20032;-95
2022/04/18 00:19:14;;;;;;;7.88;2.95;;;;;;;4.95;48.86;92692.84;5054622;28;20037;-94
2022/04/18 00:22:05;;;;;;;;;;;;;;;;;;;;;
2022/04/18 00:24:49;;;;;;;;;;;;;;;;;;;;;
2022/04/18 00:27:48;;;;;;;;;;;;;;;;;;;;;
2022/04/18 00:31:04;;;;;;;10.48;2.53;;;;;;;4.92;51.01;92721.91;5054557;28;20068;-94
2022/04/18 00:33:44;;;;;;;4.90;2.20;;;;;;;4.36;51.28;92652.88;5026032;28;20462;-94
2022/04/18 00:36:45;;;;;;;6.82;2.50;;;;;;;4.59;51.89;92702.88;5039081;28;20059;-95
2022/04/18 00:39:24;;;;;;;5.93;2.33;;;;;;;4.38;51.99;92687.13;5038671;28;20102;-95
2022/04/18 00:42:26;;;;;;;9.23;2.53;;;;;;;4.50;52.09;92715.53;5038915;28;20051;-94
2022/04/18 00:45:15;;;;;;;5.32;2.50;;;;;;;4.58;52.51;92735.81;5043929;28;20048;-94
2022/04/18 00:48:16;;;;;;;;;;;;;;;;;;;;;
2022/04/18 00:51:18;;;;;;;6.77;2.50;;;;;;;4.10;53.11;92679.56;5054311;28;20053;-95
2022/04/18 00:53:58;;;;;;;;;;;;;;;;;;;;;
2022/04/18 00:56:59;;;;;;;;;;;;;;;;;;;;;
2022/04/18 00:59:50;;;;;;;;;;;;;;;;;;;;;
2022/04/18 01:02:52;;;;;;;;;;;;;;;;;;;;;
2022/04/18 01:05:48;;;;;;;5.93;2.70;;;;;;;4.03;54.66;92694.47;5043479;28;20070;-95
2022/04/18 01:08:29;;;;;;;;;;;;;;;;;;;;;
2022/04/18 01:11:13;;;;;;;6.88;2.88;;;;;;;4.24;54.46;92718.84;5013687;28;20057;-94
2022/04/18 01:14:37;;;;;;;6.60;2.40;;;;;;;3.83;54.11;92669.91;5013466;28;20046;-95
2022/04/18 01:18:16;;;;;;;5.47;2.53;;;;;;;3.96;53.73;92690.28;5014483;28;20049;-95
2022/04/18 01:31:05;;;;;;;6.05;2.53;;;;;;;4.24;46.99;92652.25;5014302;28;20041;-95
2022/04/18 01:34:02;;;;;;;4.50;2.00;;;;;;;4.40;47.26;92683.50;5012960;28;20042;-95
2022/04/18 01:36:51;;;;;;;8.90;2.47;;;;;;;4.15;47.03;92651.09;5001307;28;20041;-95
2022/04/18 01:39:38;;;;;;;7.15;2.15;;;;;;;4.14;46.88;92634.78;4986993;28;20042;-94
2022/04/18 01:42:40;;;;;;;5.07;2.30;;;;;;;4.24;47.19;92665.19;5008727;28;20044;-94
2022/04/18 01:45:41;;;;;;;5.07;2.38;;;;;;;4.17;47.62;92655.03;5018693;28;20056;-94
2022/04/18 01:49:11;;;;;;;4.32;2.17;;;;;;;4.38;48.39;92686.34;4997388;28;20025;-94
2022/04/18 01:52:31;;;;;;;7.05;2.20;;;;;;;4.23;48.52;92679.16;5017772;28;20045;-94
2022/04/18 01:55:21;;;;;;;4.68;2.17;;;;;;;3.92;48.73;92641.78;4989980;28;20052;-94
2022/04/18 01:58:09;;;;;;;5.35;2.30;;;;;;;4.24;48.07;92685.94;4987241;28;20054;-94
2022/04/18 02:00:49;;;;;;;4.88;2.10;;;;;;;3.94;47.19;92630.16;4987470;28;20108;-94
2022/04/18 02:04:07;;;;;;;5.97;2.20;;;;;;;3.81;48.03;92620.16;5005093;28;20073;-95
2022/04/18 02:07:02;;;;;;;5.65;2.20;;;;;;;4.18;48.87;92686.88;5004955;28;20046;-93
2022/04/18 02:09:41;;;;;;;5.00;2.15;;;;;;;3.76;49.49;92638.22;4991073;28;20097;-94
2022/04/18 02:12:32;;;;;;;4.07;2.17;;;;;;;3.72;49.82;92631.94;5038667;28;20054;-94
2022/04/18 02:15:38;;;;;;;5.22;2.30;;;;;;;3.91;49.87;92668.69;5037048;28;20094;-93
2022/04/18 02:18:34;;;;;;;;;;;;;;;;;;;;;
2022/04/18 02:21:23;;;;;;;;;;;;;;;;;;;;;
2022/04/18 02:24:14;;;;;;;4.72;2.40;;;;;;;3.58;51.81;92646.25;5018862;28;20056;-93
2022/04/18 02:27:11;;;;;;;7.88;2.38;;;;;;;3.38;51.91;92626.84;5002596;28;20562;-94
2022/04/18 02:33:24;;;;;;;9.35;2.40;;;;;;;3.37;52.39;92633.03;5011929;28;20132;-95
2022/04/18 02:36:33;;;;;;;5.32;2.40;;;;;;;3.24;51.98;92626.41;5002574;28;20040;-94
2022/04/18 02:39:50;;;;;;;4.60;2.20;;;;;;;3.16;52.48;92613.88;4986460;28;20038;-94
2022/04/18 02:42:33;;;;;;;7.05;2.42;;;;;;;3.40;52.43;92660.25;4984543;28;20092;-93
2022/04/18 02:45:23;;;;;;;5.65;2.40;;;;;;;3.06;52.45;92619.69;4952918;28;20569;-95
2022/04/18 02:48:44;;;;;;;;;;;;;;;;;;;;;
2022/04/18 02:51:40;;;;;;;6.82;2.40;;;;;;;3.06;52.87;92619.69;5004994;28;20499;-95
2022/04/18 02:54:59;;;;;;;4.28;2.28;;;;;;;3.27;53.45;92651.03;5016050;28;20042;-95
2022/04/18 02:57:36;;;;;;;5.15;2.47;;;;;;;3.40;53.27;92661.03;4999746;28;20046;-95
2022/04/18 03:02:59;;;;;;;10.85;2.50;;;;;;;2.98;53.53;92596.78;5015975;28;20045;-94
2022/04/18 03:05:35;;;;;;;4.55;2.25;;;;;;;3.01;53.78;92598.91;4999205;28;20064;-94
2022/04/18 03:11:17;;;;;;;7.18;3.33;;;;;;;3.03;54.56;92596.84;5013507;28;20104;-94
2022/04/18 03:13:50;;;;;;;7.55;3.40;;;;;;;3.13;54.44;92615.13;4999436;28;20037;-94
2022/04/18 03:17:11;;;;;;;7.88;2.95;;;;;;;3.50;55.01;92656.00;5016075;28;20124;-94
2022/04/18 03:19:55;;;;;;;;;;;;;;;;;;;;;
2022/04/18 03:22:37;;;;;;;;;;;;;;;;;;;;;
2022/04/18 03:25:58;;;;;;;;;;;;;;;;;;;;;
2022/04/18 03:28:57;;;;;;;6.88;2.40;;;;;;;3.41;54.82;92574.59;5005754;28;20133;-95
2022/04/18 03:31:34;;;;;;;6.07;2.70;;;;;;;3.55;54.50;92580.22;4982106;28;20045;-95
2022/04/18 03:34:37;;;;;;;6.30;2.55;;;;;;;3.73;54.08;92594.66;4999476;28;20121;-95
2022/04/18 03:40:59;;;;;;;;;;;;;;;;;;;;;
2022/04/18 03:44:17;;;;;;;;;;;;;;;;;;;;;
2022/04/18 03:47:18;;;;;;;;;;;;;;;;;;;;;
2022/04/18 03:50:22;;;;;;;5.38;2.25;;;;;;;3.89;52.79;92572.31;5016707;28;20049;-95
2022/04/18 03:53:38;;;;;;;6.55;2.22;;;;;;;4.14;52.61;92597.72;5002793;28;20080;-95
2022/04/18 03:56:17;;;;;;;;;;;;;;;;;;;;;
2022/04/18 03:59:28;;;;;;;4.22;2.22;;;;;;;3.88;52.40;92555.22;5002455;28;20057;-95
2022/04/18 04:02:32;;;;;;;5.68;2.22;;;;;;;4.03;51.95;92575.31;4986948;28;20526;-95
2022/04/18 04:05:49;;;;;;;;;;;;;;;;;;;;;
2022/04/18 04:09:08;;;;;;;4.10;2.03;;;;;;;3.71;51.76;92539.75;4974828;28;20488;-94
2022/04/18 04:11:42;;;;;;;6.20;2.15;;;;;;;3.90;51.75;92571.31;4945897;28;20421;-94
2022/04/18 04:14:44;;;;;;;3.90;1.98;;;;;;;3.65;52.00;92535.56;4957946;28;20062;-95
2022/04/18 04:20:50;;;;;;;5.95;2.28;;;;;;;3.60;51.99;92535.47;4988088;28;20062;-95
2022/04/18 04:23:46;;;;;;;6.57;2.67;;;;;;;3.68;52.28;92545.41;4998215;28;20057;-95
2022/04/18 04:26:44;;;;;;;8.50;2.40;;;;;;;4.02;53.41;92584.13;4985810;28;20139;-94
2022/04/18 04:29:54;;;;;;;5.18;2.10;;;;;;;3.68;53.62;92542.84;4986233;28;20550;-93
2022/04/18 04:33:02;;;;;;;3.75;2.10;;;;;;;3.99;54.71;92584.63;5000483;28;20561;-94
2022/04/18 04:35:57;;;;;;;5.22;2.22;;;;;;;3.87;54.66;92557.03;4983259;28;20046;-94
2022/04/18 04:38:37;;;;;;;5.90;2.58;;;;;;;3.76;54.79;92534.66;4980280;28;20038;-95
2022/04/18 04:41:20;;;;;;;7.22;2.58;;;;;;;3.84;54.54;92552.31;4983233;28;20381;-95
2022/04/18 04:48:00;;;;;;;5.70;2.10;;;;;;;3.84;53.64;92523.84;5012256;28;20018;-94
2022/04/18 04:50:37;;;;;;;4.75;2.28;;;;;;;3.89;53.46;92510.94;4981426;28;20038;-94
2022/04/18 04:53:41;;;;;;;8.18;2.58;;;;;;;4.06;52.97;92526.41;4998592;28;20056;-94
2022/04/18 04:56:35;;;;;;;4.75;2.30;;;;;;;4.17;52.44;92524.69;4999292;28;20116;-96
2022/04/18 04:59:28;;;;;;;7.35;2.20;;;;;;;4.36;52.17;92538.84;4982415;28;20050;-95
2022/04/18 05:02:06;;;;;;;7.55;2.50;;;;;;;4.67;53.34;92575.41;4997597;28;20038;-95
2022/04/18 05:08:10;;;;;;;8.07;2.35;;;;;;;4.79;55.08;92547.47;4996950;28;20061;-94
2022/04/18 05:10:59;;;;;;;4.22;2.28;;;;;;;4.58;55.38;92512.06;4995979;28;20034;-95
2022/04/18 05:13:55;;;;;;;5.70;2.30;;;;;;;5.13;55.54;92577.53;5000437;28;20045;-95
2022/04/18 05:17:06;;;;;;;5.82;2.40;;;;;;;5.22;54.57;92576.03;5017425;28;20041;-95
2022/04/18 05:19:49;;;;;;;7.70;2.50;;;;;;;5.29;53.63;92575.81;4984644;28;20068;-95
2022/04/18 05:23:15;;;;;;;;;;;;;;;;;;;;;
2022/04/18 05:26:16;;;;;;;10.13;2.72;;;;;;;5.19;49.78;92527.22;4979265;28;20045;-95
2022/04/18 05:29:21;;;;;;;7.85;2.75;;;;;;;5.38;50.81;92532.75;4968803;28;20106;-94
2022/04/18 05:32:13;;;;;;;;;;;;;;;;;;;;;
2022/04/18 05:35:11;;;;;;;11.32;3.10;;;;;;;5.80;54.02;92543.06;4980133;28;20043;-94
2022/04/18 05:38:16;;;;;;;6.18;2.80;;;;;;;5.94;54.16;92548.59;4971196;28;20583;-94
2022/04/18 05:41:35;;;;;;;;;;;;;;;;;;;;;
2022/04/18 05:44:35;;;;;;;10.00;2.40;;;;;;;6.01;54.41;92515.38;4995013;28;20066;-94
2022/04/18 05:47:47;;;;;;;6.95;2.30;;;;;;;6.07;53.77;92502.38;4987869;28;20102;-94
2022/04/18 05:51:03;;;;;;;;;;;;;;;;;;;;;
2022/04/18 05:54:21;;;;;;;6.15;2.47;;;;;;;6.40;47.65;92504.50;4982929;28;20043;-94
2022/04/18 05:57:22;;;;;;;8.32;2.50;;;;;;;6.88;47.04;92544.03;4977838;28;20043;-93
2022/04/18 06:00:23;;;;;;;;;;;;;;;;;;;;;
2022/04/18 06:03:20;;;;;;;8.02;2.30;;;;;;;7.10;43.45;92493.53;4966564;28;20457;-95
2022/04/18 06:09:41;;;;;;;5.80;2.40;;;;;;;8.04;43.10;92521.56;4975453;28;20138;-94
2022/04/18 06:12:31;;;;;;;;;;;;;;;;;;;;;
2022/04/18 06:15:18;;;;;;;;;;;;;;;;;;;;;
2022/04/18 06:18:02;;;;;;;;;;;;;;;;;;;;;
2022/04/18 06:21:11;;;;;;;;;;;;;;;;;;;;;
2022/04/18 06:24:00;;;;;;;6.95;2.20;;;;;;;8.98;39.32;92484.13;4987054;28;20058;-87
2022/04/18 06:27:08;;;;;;;;;;;;;;;;;;;;;
2022/04/18 06:29:57;;;;;;;;;;;;;;;;;;;;;
2022/04/18 06:32:40;;;;;;;;;;;;;;;9.24;39.85;92537.66;4981600;28;20057;-91
2022/04/18 06:35:38;;;;;;;9.07;2.47;;;;;;;9.17;40.43;92474.53;4991973;28;20384;-89
2022/04/18 06:38:09;;;;;;;12.77;2.33;;;;;;;8.72;43.83;92495.56;4993395;28;20378;-89
2022/04/18 06:41:14;;;;;;;4.30;2.30;;;;;;;9.09;40.89;92529.97;4984279;28;20480;-89
2022/04/18 06:44:14;;;;;;;6.63;2.42;;;;;;;9.89;38.26;92499.84;4964929;28;20046;-89
2022/04/18 06:46:56;;;;;;;8.00;2.40;;;;;;;9.43;36.95;92472.41;4983069;28;20045;-88
2022/04/18 06:49:54;;;;;;;5.07;2.47;;;;;;;9.52;39.19;92475.97;4937940;28;20047;-89
2022/04/18 06:52:54;;;;;;;;;;;;;;;12.02;38.24;92524.72;4964638;28;20066;-89
2022/04/18 06:59:19;;;;;;;6.32;2.38;;;;;;;17.18;26.04;92510.44;4944835;29;20147;-89
2022/04/18 07:01:46;;;;;;;5.50;2.20;;;;;;;17.51;24.91;92506.22;4943457;28;20063;-89
2022/04/18 07:04:15;;;;;;;5.60;2.30;;;;;;;14.98;26.22;92497.16;4979825;28;20031;-89
2022/04/18 07:06:41;;;;;;;6.22;2.20;;;;;;;12.57;29.33;92508.09;4979469;28;20114;-90
2022/04/18 07:09:10;;;;;;;6.70;2.80;;;;;;;12.22;35.43;92518.28;4980790;28;20043;-90
2022/04/18 07:12:00;;;;;;;5.25;2.22;;;;;;;10.51;34.39;92491.97;4996389;28;20058;-90
2022/04/18 07:14:39;;;;;;;;;;;;;;;;;;;;;
2022/04/18 07:17:27;;;;;;;;;;;;;;;;;;;;;
2022/04/18 07:20:26;;;;;;;6.47;2.67;;;;;;;9.75;40.44;92479.63;4996301;28;20157;-90
2022/04/18 07:23:00;;;;;;;6.63;2.78;;;;;;;9.58;42.15;92501.00;4970110;28;20050;-90
2022/04/18 07:26:09;;;;;;;;;;;;;;;;;;;;;
2022/04/18 07:31:44;;;;;;;8.85;2.22;;;;;;;9.82;41.39;92463.59;4985347;28;20534;-90
2022/04/18 07:34:20;;;;;;;5.93;2.28;;;;;;;9.37;39.59;92455.25;4998023;28;20037;-90
2022/04/18 07:36:57;;;;;;;6.28;2.28;;;;;;;10.04;38.49;92449.19;4949478;28;20061;-90
2022/04/18 07:39:46;;;;;;;;;;;;;;;;;;;;;
2022/04/18 07:42:27;;;;;;;5.30;2.35;;;;;;;10.40;38.79;92470.41;4993929;28;20091;-89
2022/04/18 07:44:58;;;;;;;7.93;2.50;;;;;;;11.33;35.88;92496.63;4996416;28;20044;-90
2022/04/18 07:47:57;;;;;;;;;;;;;;;;;;;;;
2022/04/18 07:57:45;;;;;;;5.45;2.35;;;;;;;10.63;37.74;92456.44;5012427;28;20144;-90
2022/04/18 08:00:30;;;;;;;6.45;2.45;;;;;;;9.90;38.06;92410.66;4968814;28;20046;-89
2022/04/18 08:03:16;;;;;;;6.57;2.35;;;;;;;10.24;37.90;92414.09;4981373;28;20038;-89
2022/04/18 08:06:14;;;;;;;4.18;2.20;;;;;;;10.04;36.91;92415.19;4979948;28;20141;-88
2022/04/18 08:08:57;;;;;;;4.57;2.20;;;;;;;9.99;36.01;92408.19;4993495;28;20040;-89
2022/04/18 08:11:43;;;;;;;5.13;2.25;;;;;;;9.50;36.75;92411.97;5013838;28;20040;-89
2022/04/18 08:14:25;;;;;;;6.07;2.13;;;;;;;10.09;36.07;92415.13;4971235;28;20403;-89
2022/04/18 08:17:19;;;;;;;7.40;2.60;;;;;;;10.66;35.08;92430.75;4992754;28;20134;-88
2022/04/18 08:19:54;;;;;;;6.82;2.13;;;;;;;10.31;34.85;92411.94;5027370;28;20071;-88
2022/04/18 08:22:28;;;;;;;3.83;2.00;;;;;;;9.90;35.65;92408.03;5001435;28;20372;-90
2022/04/18 08:25:17;;;;;;;5.40;2.25;;;;;;;10.04;36.52;92418.56;5005082;28;20111;-88
2022/04/18 08:28:11;;;;;;;4.07;2.28;;;;;;;10.25;35.69;92465.38;5013845;28;20049;-91
2022/04/18 08:30:42;;;;;;;6.32;2.28;;;;;;;9.78;36.61;92432.00;5011382;28;20536;-91
2022/04/18 08:33:38;;;;;;;5.32;2.35;;;;;;;9.45;37.75;92425.09;4981984;28;20042;-91
2022/04/18 08:36:34;;;;;;;;;;;;;;;;;;;;;
2022/04/18 08:39:33;;;;;;;;;;;;;;;;;;;;;
2022/04/18 08:42:08;;;;;;;5.03;2.20;;;;;;;10.33;36.96;92396.72;4979178;28;20065;-88
2022/04/18 08:45:04;;;;;;;4.25;2.17;;;;;;;10.01;36.98;92406.06;5007751;28;20038;-89
2022/04/18 08:59:45;;;;;;;5.85;2.15;;;;;;;10.39;36.08;92411.28;4975789;28;20140;-90
2022/04/18 09:02:36;;;;;;;7.18;2.88;;;;;;;10.52;36.02;92394.06;4983254;28;20042;-91
2022/04/18 09:06:25;;;;;;;;;;;;;;;;;;;;;
2022/04/18 09:09:16;;;;;;;;;;;;;;;;;;;;;
2022/04/18 09:12:16;;;;;;;5.22;2.40;;;;;;;10.66;36.05;92391.47;4999987;28;20144;-92
2022/04/18 09:14:58;;;;;;;6.45;2.67;;;;;;;10.46;37.12;92355.97;4989374;28;20383;-90
2022/04/18 09:17:38;;;;;;;5.38;2.38;;;;;;;10.28;35.42;92370.63;4963538;28;20042;-91
2022/04/18 09:23:45;;;;;;;;;;;;;;;;;;;;;
2022/04/18 09:26:53;;;;;;;;;;;;;;;;;;;;;
2022/04/18 09:29:50;;;;;;;6.30;2.63;;;;;;;10.97;35.08;92387.25;4996181;28;20230;-91
2022/04/18 09:32:40;;;;;;;7.07;2.50;;;;;;;10.70;35.69;92346.13;4981264;28;20490;-91
2022/04/18 09:36:09;;;;;;;6.60;2.63;;;;;;;11.11;35.52;92410.06;4998440;28;20042;-91
2022/04/18 09:38:51;;;;;;;6.68;2.38;;;;;;;11.30;35.14;92391.63;4994918;28;20042;-90
2022/04/18 09:41:38;;;;;;;4.78;2.40;;;;;;;11.28;34.96;92338.72;4996547;28;20042;-90
2022/04/18 09:44:44;;;;;;;5.28;2.53;;;;;;;11.61;34.83;92331.47;4970434;28;20046;-91
2022/04/18 09:47:44;;;;;;;5.53;2.53;;;;;;;11.49;34.34;92323.38;4958654;28;20071;-90
2022/04/18 09:53:39;;;;;;;6.25;2.40;;;;;;;11.35;35.20;92363.47;4994742;28;20117;-90
2022/04/18 09:56:10;;;;;;;5.85;2.67;;;;;;;11.11;35.82;92323.63;4994326;28;20046;-91
2022/04/18 09:58:49;;;;;;;4.50;2.45;;;;;;;11.68;36.41;92347.56;4984625;28;20030;-90
2022/04/18 10:01:24;;;;;;;4.60;2.05;;;;;;;11.80;35.13;92381.94;4975093;28;20061;-90
2022/04/18 10:04:31;;;;;;;6.78;2.58;;;;;;;11.49;35.22;92313.66;4986441;28;20037;-89
2022/04/18 10:07:13;;;;;;;6.22;2.40;;;;;;;11.26;36.44;92341.66;5015576;28;20041;-91
2022/04/18 10:10:07;;;;;;;5.60;2.53;;;;;;;11.76;36.90;92383.59;4999819;28;20038;-91
2022/04/18 10:12:35;;;;;;;5.57;3.00;;;;;;;11.35;36.22;92312.88;5000707;28;20081;-88
2022/04/18 10:15:43;;;;;;;;;;;;;;;;;;;;;
2022/04/18 10:18:22;;;;;;;8.35;2.88;;;;;;;11.22;35.85;92306.63;5004827;28;20046;-89
2022/04/18 10:21:13;;;;;;;16.80;3.60;;;;;;;11.92;35.91;92334.22;5013539;28;20033;-89
2022/04/18 10:23:53;;;;;;;5.82;2.50;;;;;;;11.50;36.35;92351.88;5036115;28;20064;-88
2022/04/18 10:26:56;;;;;;;5.38;2.58;;;;;;;12.15;36.50;92350.75;5003689;28;20380;-89
2022/04/18 10:29:29;;;;;;;6.90;3.20;;;;;;;11.92;34.65;92283.63;4982515;28;20066;-89
2022/04/18 10:32:03;;;;;;;6.90;2.85;;;;;;;12.26;33.80;92311.91;4980300;28;20096;-90
2022/04/18 10:34:42;;;;;;;4.68;2.50;;;;;;;11.20;35.68;92285.16;4999833;28;20038;-89
2022/04/18 10:37:22;;;;;;;21.98;3.05;;;;;;;11.42;35.57;92282.59;5003768;28;20042;-90
2022/04/18 10:40:14;;;;;;;5.35;2.63;;;;;;;12.02;35.10;92309.59;5000501;28;20052;-90
2022/04/18 10:42:55;;;;;;;5.97;2.72;;;;;;;12.29;34.38;92277.97;5017556;28;20112;-91
2022/04/18 10:48:14;;;;;;;9.02;2.72;;;;;;;11.80;36.11;92271.78;4981327;28;20054;-89
2022/04/18 10:50:59;;;;;;;7.63;2.85;;;;;;;12.01;34.65;92263.47;4982207;28;20042;-89
2022/04/18 10:54:07;;;;;;;;;;;;;;;;;;;;;
2022/04/18 10:57:11;;;;;;;5.95;2.75;;;;;;;12.71;34.79;92320.47;5016180;28;20034;-89
2022/04/18 10:59:51;;;;;;;8.85;2.97;;;;;;;13.13;34.65;92292.03;4980786;28;20034;-89
2022/04/18 11:03:11;;;;;;;;;;;;;;;;;;;;;
2022/04/18 11:06:38;;;;;;;;;;;;;;;;;;;;;
2022/04/18 11:13:48;;;;;;;8.30;2.58;;;;;;;12.31;33.51;92245.41;4992506;28;20054;-90
2022/04/18 11:21:19;;;;;;;;;;;;;;;;;;;;;
2022/04/18 11:33:06;;;;;;;;;;;;;;;;;;;;;
2022/04/18 11:40:06;;;;;;;8.63;3.13;;;;;;;13.98;33.59;92259.28;4817054;29;20060;-89
2022/04/18 11:48:04;;;;;;;5.05;2.55;;;;;;;13.88;32.77;92231.44;4792635;29;20122;-90
2022/04/18 11:55:22;;;;;;;6.53;2.80;;;;;;;13.59;33.48;92252.38;4887072;29;20040;-91
2022/04/18 11:58:25;;;;;;;5.55;2.92;;;;;;;13.49;33.17;92201.63;4881574;29;20092;-90
2022/04/18 12:08:00;;;;;;;;;;;;;;;;;;;;;
2022/04/18 12:10:45;;;;;;;6.57;3.30;;;;;;;13.50;33.69;92179.50;4980394;28;20042;-90
2022/04/18 12:13:51;;;;;;;6.03;2.55;;;;;;;14.08;32.40;92221.34;4998825;28;20038;-89
2022/04/18 12:16:31;;;;;;;4.57;2.30;;;;;;;13.56;31.93;92203.03;5011092;28;20077;-89
2022/04/18 12:19:00;;;;;;;6.20;2.83;;;;;;;13.79;33.67;92193.84;4963499;28;20042;-89
2022/04/18 12:21:29;;;;;;;7.60;3.20;;;;;;;14.12;33.46;92238.06;4985177;28;20120;-89
2022/04/18 12:24:17;;;;;;;6.60;3.38;;;;;;;13.68;33.04;92203.94;5016080;28;20076;-89
2022/04/18 12:26:54;;;;;;;7.25;3.67;;;;;;;13.35;32.51;92171.31;4992453;28;20034;-89
2022/04/18 12:29:43;;;;;;;;;;;;;;;;;;;;;
2022/04/18 12:32:47;;;;;;;;;;;;;;;;;;;;;
2022/04/18 12:35:57;;;;;;;7.07;3.50;;;;;;;14.18;32.60;92192.03;5010368;28;20040;-87
2022/04/18 12:38:39;;;;;;;8.30;3.15;;;;;;;14.31;33.31;92174.50;4964619;28;20499;-89
2022/04/18 12:41:27;;;;;;;9.53;3.40;;;;;;;14.23;32.98;92159.50;4962798;28;20056;-89
2022/04/18 12:44:21;;;;;;;7.35;3.15;;;;;;;14.21;33.40;92178.28;4995533;28;20033;-90
2022/04/18 12:47:16;;;;;;;6.78;3.53;;;;;;;13.98;32.39;92166.41;4995752;28;20077;-88
2022/04/18 12:50:09;;;;;;;8.90;3.53;;;;;;;14.36;32.92;92169.84;4982043;28;20435;-88
2022/04/18 12:52:56;;;;;;;7.78;3.50;;;;;;;14.54;32.53;92180.28;4998788;28;20065;-88
2022/04/18 12:55:34;;;;;;;7.22;3.55;;;;;;;14.44;32.71;92154.31;5017334;28;20040;-88
2022/04/18 12:58:28;;;;;;;7.95;3.30;;;;;;;14.87;32.08;92204.16;5020353;28;20034;-89
2022/04/18 13:01:23;;;;;;;7.10;3.72;;;;;;;14.49;33.19;92204.94;4996619;28;20042;-91
2022/04/18 13:03:53;;;;;;;10.13;3.70;;;;;;;14.51;33.13;92163.25;5026564;28;20082;-90
2022/04/18 13:06:56;;;;;;;6.55;3.50;;;;;;;14.27;32.74;92150.66;5016644;28;20033;-88
2022/04/18 13:09:35;;;;;;;6.28;3.40;;;;;;;14.54;32.60;92148.69;4995451;28;20034;-89
2022/04/18 13:12:06;;;;;;;6.88;3.45;;;;;;;14.28;33.24;92125.91;5004040;28;20042;-89
2022/04/18 13:15:14;;;;;;;6.20;3.35;;;;;;;14.29;33.41;92127.44;5011847;28;20124;-89
2022/04/18 13:18:37;;;;;;;8.98;3.80;;;;;;;14.49;33.17;92136.47;5004330;28;20065;-88
2022/04/18 13:21:10;;;;;;;6.88;4.03;;;;;;;14.41;33.38;92149.69;4930717;29;20039;-89
2022/04/18 13:23:59;;;;;;;8.43;3.63;;;;;;;14.44;33.48;92180.66;4942475;28;20038;-89
2022/04/18 13:26:51;;;;;;;7.53;3.58;;;;;;;14.07;32.52;92117.94;5010548;28;20061;-88
2022/04/18 13:29:44;;;;;;;10.32;3.90;;;;;;;14.30;33.62;92136.88;5011800;28;20124;-87
2022/04/18 13:32:30;;;;;;;;;;;;;;;;;;;;;
2022/04/18 13:35:08;;;;;;;9.90;3.58;;;;;;;14.63;32.60;92096.00;5018159;28;20055;-91
2022/04/18 13:37:41;;;;;;;7.78;3.78;;;;;;;14.51;32.58;92130.91;5002673;28;20038;-88
2022/04/18 13:40:39;;;;;;;9.35;3.78;;;;;;;14.66;33.31;92166.47;4965718;28;20125;-89
2022/04/18 13:43:32;;;;;;;7.55;3.65;;;;;;;14.34;33.76;92135.16;4980413;28;20096;-88
2022/04/18 13:46:10;;;;;;;10.02;4.10;;;;;;;14.14;33.73;92093.75;5000389;28;20041;-88
2022/04/18 13:49:05;;;;;;;9.50;4.07;;;;;;;14.72;33.31;92152.78;4998045;28;20046;-89
2022/04/18 13:51:34;;;;;;;7.40;4.40;;;;;;;14.58;33.41;92102.22;4967422;28;20693;-89
2022/04/18 13:54:19;;;;;;;7.97;4.25;;;;;;;14.40;33.11;92106.78;4994723;28;20077;-89
2022/04/18 13:57:01;;;;;;;9.13;4.28;;;;;;;14.50;33.23;92111.69;4979063;28;20058;-88
2022/04/18 13:59:32;;;;;;;9.98;4.50;;;;;;;14.38;33.46;92088.66;5008791;28;20042;-88
2022/04/18 14:02:06;;;;;;;9.65;4.68;;;;;;;14.47;33.46;92111.53;4999031;28;20033;-88
2022/04/18 14:04:42;;;;;;;7.03;4.00;;;;;;;14.67;33.52;92089.75;4976656;28;20412;-86
2022/04/18 14:07:26;;;;;;;;;;;;;;;;;;;;;
2022/04/18 14:10:09;;;;;;;7.55;4.00;;;;;;;14.54;33.34;92080.22;4996579;28;20518;-90
2022/04/18 14:12:40;;;;;;;;;;;;;;;14.98;33.51;92122.88;4987556;28;20026;-90
2022/04/18 14:21:09;;;;;;;7.35;4.20;;;;;;;14.50;33.05;92079.28;5027822;28;20215;-89
2022/04/18 14:24:08;;;;;;;8.23;3.42;;;;;;;14.32;33.72;92079.41;4991590;28;20121;-90
2022/04/18 14:27:24;;;;;;;8.93;4.20;;;;;;;14.33;33.46;92080.94;4981485;28;20650;-89
2022/04/18 14:30:15;;;;;;;;;;;;;;;;;;;;;
2022/04/18 14:32:52;;;;;;;;;;;;;;;;;;;;;
2022/04/18 14:36:19;;;;;;;;;;;;;;;;;;;;;
2022/04/18 14:44:04;;;;;;;7.18;3.80;;;;;;;14.78;33.01;92096.19;4897269;29;20055;-89
2022/04/18 14:52:04;;;;;;;10.50;4.78;;;;;;;14.30;33.56;92092.13;4834904;29;20045;-89
2022/04/18 15:08:41;;;;;;;;;;;;;;;;;;;;;
2022/04/18 15:12:32;;;;;;;;;;;;;;;;;;;;;
2022/04/18 15:20:34;;;;;;;;;;;;;;;;;;;;;
2022/04/18 15:35:58;;;;;;;;;;;;;;;;;;;;;
2022/04/18 15:43:15;;;;;;;;;;;;;;;;;;;;;
2022/04/18 15:46:15;;;;;;;;;;;;;;;;;;;;;
2022/04/18 15:53:35;;;;;;;;;;;;;;;;;;;;;
2022/04/18 16:01:16;;;;;;;;;;;;;;;;;;;;;
2022/04/18 16:04:09;;;;;;;;;;;;;;;;;;;;;
2022/04/18 16:08:00;;;;;;;;;;;;;;;;;;;;;
2022/04/18 16:14:40;;;;;;;8.93;5.15;;;;;;;13.13;36.10;92031.88;4926001;28;20041;-91
2022/04/18 16:17:53;;;;;;;;;;;;;;;;;;;;;
2022/04/18 16:20:40;;;;;;;;;;;;;;;;;;;;;
2022/04/18 16:23:37;;;;;;;8.65;4.90;;;;;;;12.96;36.23;92029.25;4967908;28;20042;-89
2022/04/18 16:33:57;;;;;;;9.70;4.85;;;;;;;12.68;36.60;92042.72;5008566;28;20102;-91
2022/04/18 16:36:51;;;;;;;8.90;5.03;;;;;;;12.72;36.37;92040.25;5002908;28;20121;-91
2022/04/18 16:39:27;;;;;;;7.75;4.80;;;;;;;12.76;36.75;92058.78;5018477;28;20042;-91
2022/04/18 16:47:33;;;;;;;18.63;5.60;;;;;;;12.77;37.29;92082.13;5017247;28;20034;-90
2022/04/18 16:50:12;;;;;;;8.18;4.97;;;;;;;12.63;37.35;92065.72;4986341;28;20041;-90
2022/04/18 16:52:50;;;;;;;11.93;5.32;;;;;;;12.25;37.63;92035.59;5012348;28;20041;-89
2022/04/18 16:55:30;;;;;;;8.65;5.15;;;;;;;12.35;37.27;92044.25;5013441;28;20037;-89
2022/04/18 16:58:13;;;;;;;9.80;4.75;;;;;;;12.24;37.38;92034.03;5009800;28;20053;-91
2022/04/18 17:00:57;;;;;;;;;;;;;;;;;;;;;
2022/04/18 17:03:30;;;;;;;10.45;5.10;;;;;;;12.26;37.92;92068.63;4995352;28;20045;-89
2022/04/18 17:06:26;;;;;;;11.23;5.32;;;;;;;12.18;38.13;92051.03;4991144;28;20510;-91
2022/04/18 17:09:02;;;;;;;10.35;4.90;;;;;;;12.18;37.71;92055.47;5021591;28;20057;-89
2022/04/18 17:11:40;;;;;;;10.20;4.97;;;;;;;12.16;38.20;92068.91;5002375;28;20040;-91
2022/04/18 17:14:06;;;;;;;8.80;4.57;;;;;;;11.70;38.56;92032.66;4986931;28;20052;-90
2022/04/18 17:16:43;;;;;;;11.63;5.82;;;;;;;11.82;39.01;92085.28;5001567;28;20022;-89
2022/04/18 17:19:21;;;;;;;10.90;5.65;;;;;;;11.47;38.95;92048.44;5016786;28;20133;-90
2022/04/18 17:21:57;;;;;;;10.20;5.60;;;;;;;11.71;39.09;92084.00;5000833;28;20042;-90
2022/04/18 17:24:35;;;;;;;10.18;5.63;;;;;;;11.52;39.31;92065.88;5016462;28;20141;-90
2022/04/18 17:27:07;;;;;;;10.32;5.25;;;;;;;11.34;39.23;92044.06;4966497;28;20049;-89
2022/04/18 17:29:45;;;;;;;12.68;4.68;;;;;;;11.52;39.23;92071.13;4980193;28;20053;-90
2022/04/18 17:32:33;;;;;;;9.45;5.78;;;;;;;11.74;39.21;92104.38;4979162;28;20499;-90
2022/04/18 17:35:04;;;;;;;12.50;5.63;;;;;;;11.61;39.37;92114.66;4999072;28;20104;-89
2022/04/18 17:37:32;;;;;;;9.57;5.05;;;;;;;11.40;39.55;92088.19;5014458;28;20045;-89
2022/04/18 17:40:03;;;;;;;9.43;5.68;;;;;;;11.10;39.71;92044.38;4982788;28;20042;-89
2022/04/18 17:42:40;;;;;;;8.00;5.07;;;;;;;11.00;39.73;92048.78;4974660;28;20095;-90
2022/04/18 17:45:14;;;;;;;7.95;5.13;;;;;;;11.59;39.41;92116.03;5019343;28;20112;-90
2022/04/18 17:47:51;;;;;;;10.48;5.55;;;;;;;11.48;39.46;92093.75;4991990;28;20070;-89
2022/04/18 17:50:35;;;;;;;10.52;4.95;;;;;;;11.50;39.88;92110.72;4970718;28;20073;-89
2022/04/18 17:56:32;;;;;;;9.35;4.97;;;;;;;11.34;39.66;92088.59;5002763;28;20406;-89
2022/04/18 17:59:11;;;;;;;11.68;5.03;;;;;;;11.08;39.95;92065.66;5002887;28;20042;-89
2022/04/18 18:01:49;;;;;;;10.88;5.65;;;;;;;11.16;39.99;92100.81;4987874;28;20440;-89
2022/04/18 18:04:23;;;;;;;11.13;5.78;;;;;;;11.27;40.69;92123.09;4998515;28;20065;-89
2022/04/18 18:07:01;;;;;;;10.40;4.88;;;;;;;11.04;40.62;92094.28;5018803;28;20121;-89
2022/04/18 18:09:57;;;;;;;;;;;;;;;;;;;;;
2022/04/18 18:12:50;;;;;;;9.52;5.80;;;;;;;10.73;41.93;92069.88;4984125;28;20038;-90
2022/04/18 18:26:58;;;;;;;9.93;5.10;;;;;;;10.63;41.88;92152.78;4950815;28;20039;-88
2022/04/18 18:29:38;;;;;;;12.98;5.63;;;;;;;10.20;42.06;92102.63;4966496;28;20042;-88
2022/04/18 18:33:13;;;;;;;10.52;5.20;;;;;;;10.46;42.21;92146.63;4952276;28;20129;-88
2022/04/18 18:36:36;;;;;;;13.10;5.70;;;;;;;10.49;42.33;92166.94;4993899;28;20037;-88
2022/04/18 18:40:01;;;;;;;11.48;6.05;;;;;;;10.04;41.81;92111.81;4987795;28;20048;-88